sensor_id;sensor_type;location;lat;lon;timestamp;pressure;altitude;pressure_sealevel;temperature;humidity
7918;BME280;4004;42.624;23.386;2023-11-19T00:02:25;94068.03;;;3.16;100.00
7918;BME280;4004;42.624;23.386;2023-11-19T00:04:52;94053.53;;;3.22;100.00
7918;BME280;4004;42.624;23.386;2023-11-19T00:07:21;94068.88;;;3.25;100.00
7918;BME280;4004;42.624;23.386;2023-11-19T00:09:47;94064.47;;;3.20;100.00
7918;BME280;4004;42.624;23.386;2023-11-19T00:12:14;94067.88;;;3.12;100.00
7918;BME280;4004;42.624;23.386;2023-11-19T00:14:41;94074.47;;;3.15;100.00
7918;BME280;4004;42.624;23.386;2023-11-19T00:17:08;94071.16;;;3.18;100.00
7918;BME280;4004;42.624;23.386;2023-11-19T00:19:34;94064.00;;;3.18;100.00
7918;BME280;4004;42.624;23.386;2023-11-19T00:22:01;94078.34;;;3.08;100.00
7918;BME280;4004;42.624;23.386;2023-11-19T00:24:30;94069.59;;;3.08;100.00
7918;BME280;4004;42.624;23.386;2023-11-19T00:26:57;94082.72;;;3.13;100.00
7918;BME280;4004;42.624;23.386;2023-11-19T00:29:24;94078.22;;;3.14;100.00
7918;BME280;4004;42.624;23.386;2023-11-19T00:31:51;94078.22;;;3.22;99.90
7918;BME280;4004;42.624;23.386;2023-11-19T00:34:18;94080.88;;;3.22;100.00
7918;BME280;4004;42.624;23.386;2023-11-19T00:36:47;94089.31;;;3.24;99.46
7918;BME280;4004;42.624;23.386;2023-11-19T00:39:14;94085.91;;;3.32;99.03
7918;BME280;4004;42.624;23.386;2023-11-19T00:41:42;94083.41;;;3.27;99.15
7918;BME280;4004;42.624;23.386;2023-11-19T00:44:11;94090.91;;;3.34;99.13
7918;BME280;4004;42.624;23.386;2023-11-19T00:46:38;94098.25;;;3.28;99.45
7918;BME280;4004;42.624;23.386;2023-11-19T00:49:05;94091.06;;;3.20;99.76
7918;BME280;4004;42.624;23.386;2023-11-19T00:51:32;94095.25;;;3.21;100.00
7918;BME280;4004;42.624;23.386;2023-11-19T00:53:59;94100.13;;;3.28;99.97
7918;BME280;4004;42.624;23.386;2023-11-19T00:56:26;94094.50;;;3.29;99.72
7918;BME280;4004;42.624;23.386;2023-11-19T00:58:55;94093.56;;;3.25;99.99
7918;BME280;4004;42.624;23.386;2023-11-19T01:01:22;94102.00;;;3.27;99.67
7918;BME280;4004;42.624;23.386;2023-11-19T01:03:49;94100.56;;;3.21;99.74
7918;BME280;4004;42.624;23.386;2023-11-19T01:06:26;94109.50;;;3.25;100.00
7918;BME280;4004;42.624;23.386;2023-11-19T01:08:53;94102.00;;;3.27;100.00
7918;BME280;4004;42.624;23.386;2023-11-19T01:11:20;94087.59;;;3.28;100.00
7918;BME280;4004;42.624;23.386;2023-11-19T01:13:47;94103.22;;;3.21;100.00
7918;BME280;4004;42.624;23.386;2023-11-19T01:16:16;94103.84;;;3.18;100.00
7918;BME280;4004;42.624;23.386;2023-11-19T01:18:43;94096.69;;;3.27;100.00
7918;BME280;4004;42.624;23.386;2023-11-19T01:21:09;94091.66;;;3.17;100.00
7918;BME280;4004;42.624;23.386;2023-11-19T01:23:36;94092.16;;;3.28;100.00
7918;BME280;4004;42.624;23.386;2023-11-19T01:26:04;94094.97;;;3.23;100.00
7918;BME280;4004;42.624;23.386;2023-11-19T01:28:31;94095.72;;;3.15;100.00
7918;BME280;4004;42.624;23.386;2023-11-19T01:30:58;94106.63;;;3.13;100.00
7918;BME280;4004;42.624;23.386;2023-11-19T01:33:26;94106.03;;;3.16;100.00
7918;BME280;4004;42.624;23.386;2023-11-19T01:35:53;94100.09;;;3.19;100.00
7918;BME280;4004;42.624;23.386;2023-11-19T01:38:21;94106.84;;;3.25;100.00
7918;BME280;4004;42.624;23.386;2023-11-19T01:40:48;94108.09;;;3.28;100.00
7918;BME280;4004;42.624;23.386;2023-11-19T01:43:36;94086.34;;;3.26;99.08
7918;BME280;4004;42.624;23.386;2023-11-19T01:46:04;94090.72;;;3.22;99.04
7918;BME280;4004;42.624;23.386;2023-11-19T01:48:34;94101.31;;;3.13;99.26
7918;BME280;4004;42.624;23.386;2023-11-19T01:51:03;94113.66;;;3.09;99.40
7918;BME280;4004;42.624;23.386;2023-11-19T01:53:30;94104.16;;;3.17;99.57
7918;BME280;4004;42.624;23.386;2023-11-19T01:55:58;94106.66;;;3.22;98.70
7918;BME280;4004;42.624;23.386;2023-11-19T01:58:25;94108.81;;;3.11;98.29
7918;BME280;4004;42.624;23.386;2023-11-19T02:00:52;94109.75;;;3.06;98.45
7918;BME280;4004;42.624;23.386;2023-11-19T02:03:19;94108.03;;;3.10;97.83
7918;BME280;4004;42.624;23.386;2023-11-19T02:05:49;94103.16;;;3.04;98.03
7918;BME280;4004;42.624;23.386;2023-11-19T02:08:16;94081.44;;;3.02;97.87
7918;BME280;4004;42.624;23.386;2023-11-19T02:10:43;94064.81;;;2.79;98.17
7918;BME280;4004;42.624;23.386;2023-11-19T02:13:10;94097.09;;;3.03;97.21
7918;BME280;4004;42.624;23.386;2023-11-19T02:15:40;94084.44;;;3.00;96.97
7918;BME280;4004;42.624;23.386;2023-11-19T02:18:21;94081.25;;;2.89;97.48
7918;BME280;4004;42.624;23.386;2023-11-19T02:20:50;94091.69;;;2.86;97.53
7918;BME280;4004;42.624;23.386;2023-11-19T02:23:18;94083.91;;;2.89;97.45
7918;BME280;4004;42.624;23.386;2023-11-19T02:25:50;94087.53;;;2.94;97.94
7918;BME280;4004;42.624;23.386;2023-11-19T02:28:21;94071.88;;;2.83;97.35
7918;BME280;4004;42.624;23.386;2023-11-19T02:30:48;94071.38;;;2.81;97.64
7918;BME280;4004;42.624;23.386;2023-11-19T02:33:14;94079.31;;;2.73;98.33
7918;BME280;4004;42.624;23.386;2023-11-19T02:35:41;94082.88;;;2.68;98.34
7918;BME280;4004;42.624;23.386;2023-11-19T02:38:08;94087.41;;;2.67;98.45
7918;BME280;4004;42.624;23.386;2023-11-19T02:40:35;94076.13;;;2.62;98.74
7918;BME280;4004;42.624;23.386;2023-11-19T02:43:02;94076.81;;;2.67;98.37
7918;BME280;4004;42.624;23.386;2023-11-19T02:45:31;94082.84;;;2.59;98.54
7918;BME280;4004;42.624;23.386;2023-11-19T02:47:58;94086.13;;;2.56;98.75
7918;BME280;4004;42.624;23.386;2023-11-19T02:50:27;94087.03;;;2.52;98.56
7918;BME280;4004;42.624;23.386;2023-11-19T02:52:54;94093.16;;;2.61;99.36
7918;BME280;4004;42.624;23.386;2023-11-19T02:55:23;94100.22;;;2.65;99.19
7918;BME280;4004;42.624;23.386;2023-11-19T02:57:50;94102.44;;;2.72;98.37
7918;BME280;4004;42.624;23.386;2023-11-19T03:00:19;94098.19;;;2.62;98.43
7918;BME280;4004;42.624;23.386;2023-11-19T03:02:50;94091.75;;;2.63;98.38
7918;BME280;4004;42.624;23.386;2023-11-19T03:05:25;94099.63;;;2.77;98.58
7918;BME280;4004;42.624;23.386;2023-11-19T03:07:55;94107.16;;;2.84;97.65
7918;BME280;4004;42.624;23.386;2023-11-19T03:10:22;94095.28;;;2.81;96.99
7918;BME280;4004;42.624;23.386;2023-11-19T03:12:49;94107.00;;;2.89;96.73
7918;BME280;4004;42.624;23.386;2023-11-19T03:15:16;94107.16;;;2.84;96.24
7918;BME280;4004;42.624;23.386;2023-11-19T03:17:43;94104.66;;;2.79;97.13
7918;BME280;4004;42.624;23.386;2023-11-19T03:20:12;94127.56;;;2.75;97.06
7918;BME280;4004;42.624;23.386;2023-11-19T03:22:41;94124.97;;;2.83;97.13
7918;BME280;4004;42.624;23.386;2023-11-19T03:25:08;94123.44;;;2.91;96.76
7918;BME280;4004;42.624;23.386;2023-11-19T03:27:35;94127.97;;;2.90;97.21
7918;BME280;4004;42.624;23.386;2023-11-19T03:30:03;94131.09;;;2.93;96.86
7918;BME280;4004;42.624;23.386;2023-11-19T03:32:30;94127.38;;;2.94;96.60
7918;BME280;4004;42.624;23.386;2023-11-19T03:34:57;94129.25;;;3.02;96.65
7918;BME280;4004;42.624;23.386;2023-11-19T03:37:26;94121.00;;;3.12;95.84
7918;BME280;4004;42.624;23.386;2023-11-19T03:39:53;94115.38;;;3.05;95.43
7918;BME280;4004;42.624;23.386;2023-11-19T03:42:20;94120.28;;;2.89;95.58
7918;BME280;4004;42.624;23.386;2023-11-19T03:44:47;94118.25;;;2.86;96.34
7918;BME280;4004;42.624;23.386;2023-11-19T03:47:15;94122.75;;;2.77;96.72
7918;BME280;4004;42.624;23.386;2023-11-19T03:49:42;94140.41;;;2.81;96.83
7918;BME280;4004;42.624;23.386;2023-11-19T03:52:09;94128.34;;;2.75;97.06
7918;BME280;4004;42.624;23.386;2023-11-19T03:54:37;94150.84;;;2.78;97.56
7918;BME280;4004;42.624;23.386;2023-11-19T03:57:04;94143.25;;;2.85;97.46
7918;BME280;4004;42.624;23.386;2023-11-19T03:59:31;94131.00;;;2.75;97.47
7918;BME280;4004;42.624;23.386;2023-11-19T04:01:58;94140.66;;;2.71;97.38
7918;BME280;4004;42.624;23.386;2023-11-19T04:04:26;94146.50;;;2.82;97.72
7918;BME280;4004;42.624;23.386;2023-11-19T04:06:53;94146.97;;;2.84;98.47
7918;BME280;4004;42.624;23.386;2023-11-19T04:09:20;94143.97;;;2.77;98.85
7918;BME280;4004;42.624;23.386;2023-11-19T04:11:48;94150.41;;;2.84;99.19
7918;BME280;4004;42.624;23.386;2023-11-19T04:14:15;94160.91;;;2.89;98.26
7918;BME280;4004;42.624;23.386;2023-11-19T04:16:43;94149.81;;;2.87;97.65
7918;BME280;4004;42.624;23.386;2023-11-19T04:19:10;94159.97;;;2.85;98.12
7918;BME280;4004;42.624;23.386;2023-11-19T04:21:37;94155.13;;;2.87;97.84
7918;BME280;4004;42.624;23.386;2023-11-19T04:24:07;94127.00;;;2.86;97.98
7918;BME280;4004;42.624;23.386;2023-11-19T04:26:33;94152.47;;;2.87;98.10
7918;BME280;4004;42.624;23.386;2023-11-19T04:29:03;94115.94;;;2.62;97.99
7918;BME280;4004;42.624;23.386;2023-11-19T04:31:30;94151.22;;;2.85;97.56
7918;BME280;4004;42.624;23.386;2023-11-19T04:33:58;94159.53;;;2.92;97.66
7918;BME280;4004;42.624;23.386;2023-11-19T04:36:25;94156.13;;;3.00;97.78
7918;BME280;4004;42.624;23.386;2023-11-19T04:38:52;94151.94;;;3.08;96.37
7918;BME280;4004;42.624;23.386;2023-11-19T04:41:19;94168.41;;;2.87;96.03
7918;BME280;4004;42.624;23.386;2023-11-19T04:43:46;94174.00;;;2.86;96.75
7918;BME280;4004;42.624;23.386;2023-11-19T04:46:14;94155.72;;;2.84;96.84
7918;BME280;4004;42.624;23.386;2023-11-19T04:48:41;94175.59;;;2.87;95.69
7918;BME280;4004;42.624;23.386;2023-11-19T04:51:08;94179.66;;;2.93;96.00
7918;BME280;4004;42.624;23.386;2023-11-19T04:53:35;94166.22;;;2.89;96.14
7918;BME280;4004;42.624;23.386;2023-11-19T04:56:07;94168.75;;;2.95;95.93
7918;BME280;4004;42.624;23.386;2023-11-19T04:58:34;94145.28;;;2.88;95.16
7918;BME280;4004;42.624;23.386;2023-11-19T05:01:01;94164.94;;;2.78;95.93
7918;BME280;4004;42.624;23.386;2023-11-19T05:03:30;94176.13;;;2.75;95.56
7918;BME280;4004;42.624;23.386;2023-11-19T05:05:57;94166.56;;;2.65;95.65
7918;BME280;4004;42.624;23.386;2023-11-19T05:08:24;94176.69;;;2.63;96.86
7918;BME280;4004;42.624;23.386;2023-11-19T05:10:51;94183.03;;;2.76;97.20
7918;BME280;4004;42.624;23.386;2023-11-19T05:13:18;94188.00;;;2.78;95.63
7918;BME280;4004;42.624;23.386;2023-11-19T05:15:45;94173.00;;;2.73;95.82
7918;BME280;4004;42.624;23.386;2023-11-19T05:18:12;94182.66;;;2.69;96.37
7918;BME280;4004;42.624;23.386;2023-11-19T05:20:39;94185.69;;;2.76;95.39
7918;BME280;4004;42.624;23.386;2023-11-19T05:23:06;94185.50;;;2.73;95.08
7918;BME280;4004;42.624;23.386;2023-11-19T05:25:32;94188.63;;;2.75;95.73
7918;BME280;4004;42.624;23.386;2023-11-19T05:27:59;94192.13;;;2.84;95.02
7918;BME280;4004;42.624;23.386;2023-11-19T05:30:26;94188.88;;;2.87;93.85
7918;BME280;4004;42.624;23.386;2023-11-19T05:32:53;94190.56;;;2.83;94.62
7918;BME280;4004;42.624;23.386;2023-11-19T05:35:19;94192.31;;;2.87;94.88
7918;BME280;4004;42.624;23.386;2023-11-19T05:37:47;94197.38;;;2.75;94.20
7918;BME280;4004;42.624;23.386;2023-11-19T05:40:15;94198.00;;;2.72;94.58
7918;BME280;4004;42.624;23.386;2023-11-19T05:42:43;94196.41;;;2.71;95.43
7918;BME280;4004;42.624;23.386;2023-11-19T05:45:11;94201.38;;;2.64;94.99
7918;BME280;4004;42.624;23.386;2023-11-19T05:47:38;94179.72;;;2.70;95.21
7918;BME280;4004;42.624;23.386;2023-11-19T05:50:05;94180.13;;;2.64;95.85
7918;BME280;4004;42.624;23.386;2023-11-19T05:52:33;94186.22;;;2.64;96.02
7918;BME280;4004;42.624;23.386;2023-11-19T05:55:01;94185.94;;;2.66;95.77
7918;BME280;4004;42.624;23.386;2023-11-19T05:57:29;94192.81;;;2.67;95.38
7918;BME280;4004;42.624;23.386;2023-11-19T05:59:56;94180.47;;;2.71;95.23
7918;BME280;4004;42.624;23.386;2023-11-19T06:02:24;94191.44;;;2.69;95.72
7918;BME280;4004;42.624;23.386;2023-11-19T06:04:52;94201.38;;;2.64;95.96
7918;BME280;4004;42.624;23.386;2023-11-19T06:07:19;94192.91;;;2.62;95.80
7918;BME280;4004;42.624;23.386;2023-11-19T06:09:46;94206.50;;;2.60;96.16
7918;BME280;4004;42.624;23.386;2023-11-19T06:12:14;94211.81;;;2.60;96.26
7918;BME280;4004;42.624;23.386;2023-11-19T06:14:41;94217.91;;;2.61;96.09
7918;BME280;4004;42.624;23.386;2023-11-19T06:17:08;94212.41;;;2.57;96.04
7918;BME280;4004;42.624;23.386;2023-11-19T06:19:36;94208.13;;;2.70;96.31
7918;BME280;4004;42.624;23.386;2023-11-19T06:22:03;94208.00;;;2.75;95.91
7918;BME280;4004;42.624;23.386;2023-11-19T06:24:30;94206.69;;;2.64;95.70
7918;BME280;4004;42.624;23.386;2023-11-19T06:26:57;94213.56;;;2.65;96.68
7918;BME280;4004;42.624;23.386;2023-11-19T06:29:25;94217.41;;;2.81;96.09
7918;BME280;4004;42.624;23.386;2023-11-19T06:31:51;94211.31;;;2.81;95.38
7918;BME280;4004;42.624;23.386;2023-11-19T06:34:18;94220.00;;;2.73;95.28
7918;BME280;4004;42.624;23.386;2023-11-19T06:36:45;94219.22;;;2.72;95.11
7918;BME280;4004;42.624;23.386;2023-11-19T06:39:13;94206.94;;;2.76;95.88
7918;BME280;4004;42.624;23.386;2023-11-19T06:41:44;94210.97;;;2.74;95.43
7918;BME280;4004;42.624;23.386;2023-11-19T06:44:11;94201.72;;;2.71;95.78
7918;BME280;4004;42.624;23.386;2023-11-19T06:46:40;94221.88;;;2.72;95.78
7918;BME280;4004;42.624;23.386;2023-11-19T06:49:07;94222.28;;;2.88;94.80
7918;BME280;4004;42.624;23.386;2023-11-19T06:51:34;94231.31;;;2.78;95.24
7918;BME280;4004;42.624;23.386;2023-11-19T06:54:01;94230.44;;;2.92;94.82
7918;BME280;4004;42.624;23.386;2023-11-19T06:56:27;94221.25;;;2.98;93.82
7918;BME280;4004;42.624;23.386;2023-11-19T06:58:54;94235.25;;;3.12;93.60
7918;BME280;4004;42.624;23.386;2023-11-19T07:01:21;94227.03;;;3.00;93.33
7918;BME280;4004;42.624;23.386;2023-11-19T07:03:49;94222.25;;;3.10;92.95
7918;BME280;4004;42.624;23.386;2023-11-19T07:06:17;94226.06;;;2.96;92.60
7918;BME280;4004;42.624;23.386;2023-11-19T07:08:44;94235.00;;;3.00;93.18
7918;BME280;4004;42.624;23.386;2023-11-19T07:11:12;94219.69;;;2.97;92.90
7918;BME280;4004;42.624;23.386;2023-11-19T07:13:39;94240.09;;;2.87;93.26
7918;BME280;4004;42.624;23.386;2023-11-19T07:16:07;94242.97;;;3.00;92.97
7918;BME280;4004;42.624;23.386;2023-11-19T07:18:35;94230.94;;;2.94;93.14
7918;BME280;4004;42.624;23.386;2023-11-19T07:21:04;94260.56;;;2.87;92.70
7918;BME280;4004;42.624;23.386;2023-11-19T07:23:31;94272.44;;;2.89;92.76
7918;BME280;4004;42.624;23.386;2023-11-19T07:25:58;94268.22;;;2.88;93.34
7918;BME280;4004;42.624;23.386;2023-11-19T07:28:25;94247.38;;;3.04;92.32
7918;BME280;4004;42.624;23.386;2023-11-19T07:30:54;94259.00;;;3.17;91.84
7918;BME280;4004;42.624;23.386;2023-11-19T07:33:21;94241.63;;;3.11;91.17
7918;BME280;4004;42.624;23.386;2023-11-19T07:35:48;94274.91;;;3.08;90.90
7918;BME280;4004;42.624;23.386;2023-11-19T07:38:16;94275.50;;;3.05;91.44
7918;BME280;4004;42.624;23.386;2023-11-19T07:40:43;94275.81;;;3.04;90.71
7918;BME280;4004;42.624;23.386;2023-11-19T07:43:10;94275.22;;;3.07;90.95
7918;BME280;4004;42.624;23.386;2023-11-19T07:45:37;94277.75;;;3.12;89.93
7918;BME280;4004;42.624;23.386;2023-11-19T07:48:04;94271.31;;;3.13;89.89
7918;BME280;4004;42.624;23.386;2023-11-19T07:50:32;94288.84;;;3.14;89.82
7918;BME280;4004;42.624;23.386;2023-11-19T07:52:58;94269.16;;;3.15;90.56
7918;BME280;4004;42.624;23.386;2023-11-19T07:55:27;94276.16;;;3.11;90.41
7918;BME280;4004;42.624;23.386;2023-11-19T07:57:54;94284.75;;;3.08;89.31
7918;BME280;4004;42.624;23.386;2023-11-19T08:00:21;94294.41;;;3.04;89.92
7918;BME280;4004;42.624;23.386;2023-11-19T08:02:48;94279.44;;;3.08;89.88
7918;BME280;4004;42.624;23.386;2023-11-19T08:05:14;94288.59;;;3.24;89.45
7918;BME280;4004;42.624;23.386;2023-11-19T08:07:41;94292.91;;;3.43;88.39
7918;BME280;4004;42.624;23.386;2023-11-19T08:10:08;94294.69;;;3.56;87.75
7918;BME280;4004;42.624;23.386;2023-11-19T08:12:37;94286.25;;;3.54;86.10
7918;BME280;4004;42.624;23.386;2023-11-19T08:15:05;94290.75;;;3.45;85.91
7918;BME280;4004;42.624;23.386;2023-11-19T08:17:32;94292.13;;;3.42;85.89
7918;BME280;4004;42.624;23.386;2023-11-19T08:19:59;94284.94;;;3.43;85.47
7918;BME280;4004;42.624;23.386;2023-11-19T08:22:26;94304.91;;;3.31;85.96
7918;BME280;4004;42.624;23.386;2023-11-19T08:24:53;94299.06;;;3.52;85.97
7918;BME280;4004;42.624;23.386;2023-11-19T08:27:20;94312.31;;;3.83;84.87
7918;BME280;4004;42.624;23.386;2023-11-19T08:29:53;94303.06;;;4.21;83.72
7918;BME280;4004;42.624;23.386;2023-11-19T08:32:22;94310.25;;;4.29;81.59
7918;BME280;4004;42.624;23.386;2023-11-19T08:34:49;94310.44;;;4.32;81.17
7918;BME280;4004;42.624;23.386;2023-11-19T08:37:15;94314.34;;;4.35;79.92
7918;BME280;4004;42.624;23.386;2023-11-19T08:39:43;94293.53;;;4.37;80.35
7918;BME280;4004;42.624;23.386;2023-11-19T08:42:10;94312.66;;;4.48;79.81
7918;BME280;4004;42.624;23.386;2023-11-19T08:44:37;94322.03;;;4.45;79.10
7918;BME280;4004;42.624;23.386;2023-11-19T08:47:05;94329.09;;;4.50;78.03
7918;BME280;4004;42.624;23.386;2023-11-19T08:49:32;94327.72;;;4.78;77.04
7918;BME280;4004;42.624;23.386;2023-11-19T08:51:58;94322.06;;;4.97;76.67
7918;BME280;4004;42.624;23.386;2023-11-19T08:54:25;94296.84;;;4.86;74.48
7918;BME280;4004;42.624;23.386;2023-11-19T08:56:52;94309.38;;;4.77;73.70
7918;BME280;4004;42.624;23.386;2023-11-19T08:59:19;94314.56;;;4.65;74.45
7918;BME280;4004;42.624;23.386;2023-11-19T09:01:46;94317.97;;;4.56;74.84
7918;BME280;4004;42.624;23.386;2023-11-19T09:04:14;94314.66;;;4.42;74.64
7918;BME280;4004;42.624;23.386;2023-11-19T09:06:41;94303.50;;;4.14;75.68
7918;BME280;4004;42.624;23.386;2023-11-19T09:09:09;94307.91;;;4.19;77.19
7918;BME280;4004;42.624;23.386;2023-11-19T09:11:36;94302.25;;;4.29;76.89
7918;BME280;4004;42.624;23.386;2023-11-19T09:14:03;94298.84;;;4.37;75.73
7918;BME280;4004;42.624;23.386;2023-11-19T09:16:30;94279.13;;;4.47;74.87
7918;BME280;4004;42.624;23.386;2023-11-19T09:18:57;94284.91;;;4.49;74.99
7918;BME280;4004;42.624;23.386;2023-11-19T09:21:26;94293.38;;;4.60;74.50
7918;BME280;4004;42.624;23.386;2023-11-19T09:23:54;94290.13;;;4.71;73.40
7918;BME280;4004;42.624;23.386;2023-11-19T09:26:21;94302.50;;;4.67;74.24
7918;BME280;4004;42.624;23.386;2023-11-19T09:28:48;94311.88;;;4.99;73.45
7918;BME280;4004;42.624;23.386;2023-11-19T09:31:15;94324.88;;;5.18;71.73
7918;BME280;4004;42.624;23.386;2023-11-19T09:33:42;94288.31;;;5.36;70.63
7918;BME280;4004;42.624;23.386;2023-11-19T09:36:10;94284.56;;;5.20;68.99
7918;BME280;4004;42.624;23.386;2023-11-19T09:38:40;94291.56;;;5.42;68.61
7918;BME280;4004;42.624;23.386;2023-11-19T09:41:07;94277.44;;;5.50;67.00
7918;BME280;4004;42.624;23.386;2023-11-19T09:43:35;94278.25;;;5.42;67.20
7918;BME280;4004;42.624;23.386;2023-11-19T09:46:05;94268.69;;;5.41;66.40
7918;BME280;4004;42.624;23.386;2023-11-19T09:48:33;94269.84;;;5.23;66.47
7918;BME280;4004;42.624;23.386;2023-11-19T09:51:01;94260.53;;;5.37;66.78
7918;BME280;4004;42.624;23.386;2023-11-19T09:53:28;94248.28;;;5.54;65.89
7918;BME280;4004;42.624;23.386;2023-11-19T09:55:56;94210.66;;;5.38;66.42
7918;BME280;4004;42.624;23.386;2023-11-19T09:58:24;94222.69;;;5.06;66.76
7918;BME280;4004;42.624;23.386;2023-11-19T10:00:51;94220.81;;;4.89;68.91
7918;BME280;4004;42.624;23.386;2023-11-19T10:03:18;94188.56;;;4.82;69.39
7918;BME280;4004;42.624;23.386;2023-11-19T10:05:45;94200.81;;;4.65;70.40
7918;BME280;4004;42.624;23.386;2023-11-19T10:08:12;94211.16;;;4.58;71.17
7918;BME280;4004;42.624;23.386;2023-11-19T10:10:39;94214.75;;;4.62;70.88
7918;BME280;4004;42.624;23.386;2023-11-19T10:13:07;94222.13;;;4.39;71.74
7918;BME280;4004;42.624;23.386;2023-11-19T10:15:36;94219.75;;;4.29;72.67
7918;BME280;4004;42.624;23.386;2023-11-19T10:18:03;94217.44;;;4.36;72.21
7918;BME280;4004;42.624;23.386;2023-11-19T10:20:35;94226.66;;;4.30;72.84
7918;BME280;4004;42.624;23.386;2023-11-19T10:23:02;94243.59;;;4.34;73.74
7918;BME280;4004;42.624;23.386;2023-11-19T10:25:29;94248.59;;;4.44;73.21
7918;BME280;4004;42.624;23.386;2023-11-19T10:27:56;94232.59;;;4.35;73.88
7918;BME280;4004;42.624;23.386;2023-11-19T10:30:26;94246.09;;;4.39;71.95
7918;BME280;4004;42.624;23.386;2023-11-19T10:33:14;94214.44;;;4.29;72.32
7918;BME280;4004;42.624;23.386;2023-11-19T10:35:53;94215.22;;;4.12;71.92
7918;BME280;4004;42.624;23.386;2023-11-19T10:38:20;94211.47;;;4.13;72.70
7918;BME280;4004;42.624;23.386;2023-11-19T10:40:47;94207.84;;;4.18;72.41
7918;BME280;4004;42.624;23.386;2023-11-19T10:43:14;94207.56;;;4.28;72.26
7918;BME280;4004;42.624;23.386;2023-11-19T10:45:43;94207.25;;;4.38;71.93
7918;BME280;4004;42.624;23.386;2023-11-19T10:48:10;94220.25;;;4.40;70.77
7918;BME280;4004;42.624;23.386;2023-11-19T10:50:39;94221.00;;;4.40;70.42
7918;BME280;4004;42.624;23.386;2023-11-19T10:53:07;94190.34;;;4.43;69.69
7918;BME280;4004;42.624;23.386;2023-11-19T10:55:34;94220.88;;;4.28;70.19
7918;BME280;4004;42.624;23.386;2023-11-19T10:58:04;94201.94;;;4.21;70.14
7918;BME280;4004;42.624;23.386;2023-11-19T11:00:38;94171.41;;;4.09;69.83
7918;BME280;4004;42.624;23.386;2023-11-19T11:03:10;94191.59;;;4.10;71.02
7918;BME280;4004;42.624;23.386;2023-11-19T11:05:37;94198.94;;;4.22;71.10
7918;BME280;4004;42.624;23.386;2023-11-19T11:08:06;94193.94;;;4.21;70.74
7918;BME280;4004;42.624;23.386;2023-11-19T11:10:39;94203.78;;;4.29;70.62
7918;BME280;4004;42.624;23.386;2023-11-19T11:13:06;94193.63;;;4.31;70.07
7918;BME280;4004;42.624;23.386;2023-11-19T11:15:34;94176.56;;;4.32;70.29
7918;BME280;4004;42.624;23.386;2023-11-19T11:18:02;94171.38;;;4.35;70.21
7918;BME280;4004;42.624;23.386;2023-11-19T11:20:31;94167.66;;;4.36;69.62
7918;BME280;4004;42.624;23.386;2023-11-19T11:23:27;94178.91;;;4.42;68.82
7918;BME280;4004;42.624;23.386;2023-11-19T11:26:09;94182.50;;;4.46;69.12
7918;BME280;4004;42.624;23.386;2023-11-19T11:28:48;94185.03;;;4.51;68.43
7918;BME280;4004;42.624;23.386;2023-11-19T11:31:24;94190.34;;;4.51;68.40
7918;BME280;4004;42.624;23.386;2023-11-19T11:34:15;94186.56;;;4.52;69.45
7918;BME280;4004;42.624;23.386;2023-11-19T11:36:54;94173.25;;;4.61;68.09
7918;BME280;4004;42.624;23.386;2023-11-19T11:39:26;94189.06;;;4.57;68.17
7918;BME280;4004;42.624;23.386;2023-11-19T11:44:59;94183.28;;;4.55;68.81
7918;BME280;4004;42.624;23.386;2023-11-19T11:50:50;94153.38;;;4.59;68.35
7918;BME280;4004;42.624;23.386;2023-11-19T11:53:19;94174.03;;;4.44;69.52
7918;BME280;4004;42.624;23.386;2023-11-19T11:55:58;94174.50;;;4.55;69.32
7918;BME280;4004;42.624;23.386;2023-11-19T11:58:31;94180.00;;;4.59;68.82
7918;BME280;4004;42.624;23.386;2023-11-19T12:01:00;94179.69;;;4.51;68.78
7918;BME280;4004;42.624;23.386;2023-11-19T12:03:28;94193.44;;;4.53;69.45
7918;BME280;4004;42.624;23.386;2023-11-19T12:05:57;94196.44;;;4.61;69.09
7918;BME280;4004;42.624;23.386;2023-11-19T12:08:28;94189.34;;;4.73;69.52
7918;BME280;4004;42.624;23.386;2023-11-19T12:10:57;94189.69;;;4.72;68.91
7918;BME280;4004;42.624;23.386;2023-11-19T12:13:52;94179.03;;;4.72;69.09
7918;BME280;4004;42.624;23.386;2023-11-19T12:16:21;94187.00;;;4.81;68.44
7918;BME280;4004;42.624;23.386;2023-11-19T12:18:47;94170.22;;;4.80;68.20
7918;BME280;4004;42.624;23.386;2023-11-19T12:21:27;94166.03;;;4.70;68.02
7918;BME280;4004;42.624;23.386;2023-11-19T12:23:57;94160.22;;;4.77;68.59
7918;BME280;4004;42.624;23.386;2023-11-19T12:26:33;94164.09;;;4.88;67.81
7918;BME280;4004;42.624;23.386;2023-11-19T12:29:01;94150.78;;;4.88;67.65
7918;BME280;4004;42.624;23.386;2023-11-19T12:31:31;94167.88;;;4.87;67.63
7918;BME280;4004;42.624;23.386;2023-11-19T12:34:05;94161.44;;;4.88;67.67
7918;BME280;4004;42.624;23.386;2023-11-19T12:36:32;94152.53;;;4.84;68.12
7918;BME280;4004;42.624;23.386;2023-11-19T12:39:00;94141.41;;;4.82;68.65
7918;BME280;4004;42.624;23.386;2023-11-19T12:41:27;94138.13;;;4.76;69.05
7918;BME280;4004;42.624;23.386;2023-11-19T12:44:09;94148.63;;;4.73;69.01
7918;BME280;4004;42.624;23.386;2023-11-19T12:46:36;94139.69;;;4.77;69.94
7918;BME280;4004;42.624;23.386;2023-11-19T12:49:03;94140.00;;;4.85;68.75
7918;BME280;4004;42.624;23.386;2023-11-19T12:51:31;94138.13;;;4.85;69.38
7918;BME280;4004;42.624;23.386;2023-11-19T12:54:00;94137.19;;;4.81;69.09
7918;BME280;4004;42.624;23.386;2023-11-19T12:56:26;94137.38;;;4.76;69.93
7918;BME280;4004;42.624;23.386;2023-11-19T12:58:55;94131.09;;;4.72;70.98
7918;BME280;4004;42.624;23.386;2023-11-19T13:01:21;94155.66;;;4.77;70.05
7918;BME280;4004;42.624;23.386;2023-11-19T13:03:48;94152.72;;;4.70;70.63
7918;BME280;4004;42.624;23.386;2023-11-19T13:06:16;94137.84;;;4.69;71.13
7918;BME280;4004;42.624;23.386;2023-11-19T13:08:47;94134.03;;;4.88;71.70
7918;BME280;4004;42.624;23.386;2023-11-19T13:11:30;94140.91;;;4.89;71.00
7918;BME280;4004;42.624;23.386;2023-11-19T13:13:59;94133.34;;;4.99;70.09
7918;BME280;4004;42.624;23.386;2023-11-19T13:16:27;94132.13;;;4.97;69.80
7918;BME280;4004;42.624;23.386;2023-11-19T13:18:54;94132.44;;;4.95;70.40
7918;BME280;4004;42.624;23.386;2023-11-19T13:21:21;94118.19;;;4.91;70.13
7918;BME280;4004;42.624;23.386;2023-11-19T13:23:48;94123.03;;;4.98;69.89
7918;BME280;4004;42.624;23.386;2023-11-19T13:26:14;94119.72;;;5.01;69.56
7918;BME280;4004;42.624;23.386;2023-11-19T13:28:43;94112.75;;;5.17;70.47
7918;BME280;4004;42.624;23.386;2023-11-19T13:31:09;94104.44;;;5.19;69.21
7918;BME280;4004;42.624;23.386;2023-11-19T13:33:36;94105.06;;;5.25;68.87